Time;durP1;ratioP1;P1;durP2;ratioP2;P2;SDS_P1;SDS_P2;PMS_P1;PMS_P2;Temp;Humidity;BMP_temperature;BMP_pressure;BME280_temperature;BME280_humidity;BME280_pressure;Samples;Min_cycle;Max_cycle;Signal;HPM_P1;HPM_P2
2021/12/30 00:00:33;;;;;;;47.97;7.80;;;;;;;;;;5122536;27;20055;-79
2021/12/30 00:02:59;;;;;;;50.35;7.03;;;;;;;;;;5118141;27;20038;-79
2021/12/30 00:05:26;;;;;;;60.80;8.50;;;;;;;;;;5102329;27;20043;-78
2021/12/30 00:07:52;;;;;;;63.95;7.93;;;;;;;;;;5114066;27;20039;-79
2021/12/30 00:10:18;;;;;;;54.40;7.78;;;;;;;;;;5112531;27;20051;-79
2021/12/30 00:12:44;;;;;;;71.72;10.75;;;;;;;;;;5149215;27;20383;-79
2021/12/30 00:15:11;;;;;;;60.90;8.02;;;;;;;;;;5130275;27;20401;-79
2021/12/30 00:17:37;;;;;;;66.00;9.45;;;;;;;;;;5116988;27;20043;-79
2021/12/30 00:20:06;;;;;;;77.50;10.05;;;;;;;;;;5110268;27;20039;-79
2021/12/30 00:22:33;;;;;;;69.50;9.13;;;;;;;;;;5123962;27;20159;-79
2021/12/30 00:24:59;;;;;;;71.97;8.77;;;;;;;;;;5131547;27;20122;-78
2021/12/30 00:27:25;;;;;;;64.80;9.00;;;;;;;;;;5124476;27;20046;-79
2021/12/30 00:29:52;;;;;;;68.50;9.55;;;;;;;;;;5115073;27;20063;-79
2021/12/30 00:32:18;;;;;;;60.72;7.95;;;;;;;;;;5127226;27;20129;-79
2021/12/30 00:34:44;;;;;;;70.90;8.57;;;;;;;;;;5107587;27;20483;-79
2021/12/30 00:37:10;;;;;;;62.78;7.82;;;;;;;;;;5110079;27;20521;-79
2021/12/30 00:39:36;;;;;;;65.47;8.75;;;;;;;;;;5099495;27;20137;-79
2021/12/30 00:42:02;;;;;;;74.53;9.57;;;;;;;;;;5108776;27;20050;-79
2021/12/30 00:44:28;;;;;;;77.88;9.70;;;;;;;;;;5100294;27;20044;-79
2021/12/30 00:46:57;;;;;;;65.78;9.93;;;;;;;;;;5106368;27;20149;-79
2021/12/30 00:49:23;;;;;;;68.18;9.15;;;;;;;;;;5103608;27;20047;-79
2021/12/30 00:51:49;;;;;;;63.03;8.48;;;;;;;;;;5108987;27;20051;-79
2021/12/30 00:54:15;;;;;;;75.72;11.05;;;;;;;;;;5068749;28;20437;-79
2021/12/30 00:56:42;;;;;;;79.82;10.40;;;;;;;;;;5095876;28;20046;-80
2021/12/30 00:59:08;;;;;;;73.32;9.93;;;;;;;;;;5110033;27;20127;-78
2021/12/30 01:01:34;;;;;;;83.20;9.45;;;;;;;;;;5109653;28;20083;-79
2021/12/30 01:04:00;;;;;;;72.43;9.45;;;;;;;;;;5107468;28;20039;-79
2021/12/30 01:06:28;;;;;;;75.07;9.30;;;;;;;;;;5094865;28;20429;-79
2021/12/30 01:08:54;;;;;;;69.40;9.60;;;;;;;;;;5099101;28;20047;-79
2021/12/30 01:11:23;;;;;;;70.88;9.35;;;;;;;;;;5111138;28;20066;-79
2021/12/30 01:13:57;;;;;;;69.22;9.27;;;;;;;;;;5113925;28;20534;-79
2021/12/30 01:16:24;;;;;;;65.72;9.95;;;;;;;;;;5083206;28;20052;-79
2021/12/30 01:21:27;;;;;;;71.82;9.30;;;;;;;;;;5127509;27;20048;-79
2021/12/30 01:23:54;;;;;;;71.13;9.65;;;;;;;;;;5085106;28;20448;-79
2021/12/30 01:26:20;;;;;;;71.75;8.95;;;;;;;;;;5087940;28;20367;-79
2021/12/30 01:28:48;;;;;;;75.35;9.00;;;;;;;;;;5108722;28;20078;-79
2021/12/30 01:31:14;;;;;;;72.30;10.38;;;;;;;;;;5089161;28;20052;-79
2021/12/30 01:33:42;;;;;;;71.18;7.88;;;;;;;;;;5082207;28;20048;-79
2021/12/30 01:36:08;;;;;;;75.72;11.00;;;;;;;;;;5091646;28;20146;-79
2021/12/30 01:38:35;;;;;;;73.90;10.43;;;;;;;;;;5109747;28;20079;-77
2021/12/30 01:41:01;;;;;;;59.13;7.75;;;;;;;;;;5090135;28;20050;-79
2021/12/30 01:43:28;;;;;;;72.60;8.45;;;;;;;;;;5079906;28;20038;-79
2021/12/30 01:45:54;;;;;;;75.35;10.20;;;;;;;;;;5090224;28;20040;-79
2021/12/30 01:48:21;;;;;;;67.20;8.98;;;;;;;;;;5112329;28;20047;-79
2021/12/30 01:50:47;;;;;;;65.90;8.80;;;;;;;;;;5103202;28;20079;-79
2021/12/30 01:53:13;;;;;;;79.45;8.45;;;;;;;;;;5115226;28;20043;-79
2021/12/30 01:55:40;;;;;;;77.15;10.93;;;;;;;;;;5079321;28;20047;-79
2021/12/30 01:58:07;;;;;;;79.32;9.45;;;;;;;;;;5088334;28;20047;-79
2021/12/30 02:00:34;;;;;;;63.03;8.20;;;;;;;;;;5090575;27;20058;-79
2021/12/30 02:03:01;;;;;;;68.13;9.07;;;;;;;;;;5096602;28;20039;-79
2021/12/30 02:05:27;;;;;;;71.43;8.07;;;;;;;;;;5108181;27;20074;-79
2021/12/30 02:07:54;;;;;;;64.07;8.18;;;;;;;;;;5105765;27;20051;-79
2021/12/30 02:10:20;;;;;;;67.93;8.30;;;;;;;;;;5113506;27;20398;-79
2021/12/30 02:12:46;;;;;;;72.65;8.95;;;;;;;;;;5107128;27;20298;-79
2021/12/30 02:15:16;;;;;;;64.97;10.07;;;;;;;;;;5064650;28;20048;-80
2021/12/30 02:17:43;;;;;;;52.40;9.18;;;;;;;;;;5104316;27;20044;-79
2021/12/30 02:20:13;;;;;;;61.42;7.93;;;;;;;;;;5098404;27;20048;-79
2021/12/30 02:22:39;;;;;;;66.60;8.70;;;;;;;;;;5102981;28;20048;-79
2021/12/30 02:25:06;;;;;;;64.57;8.52;;;;;;;;;;5087089;27;20043;-79
2021/12/30 02:27:32;;;;;;;64.38;9.23;;;;;;;;;;5088076;28;20048;-79
2021/12/30 02:29:58;;;;;;;71.38;9.73;;;;;;;;;;5103069;27;20036;-79
2021/12/30 02:32:25;;;;;;;71.18;9.38;;;;;;;;;;5094908;28;20047;-80
2021/12/30 02:34:52;;;;;;;75.10;12.90;;;;;;;;;;5116923;27;20053;-79
2021/12/30 02:37:19;;;;;;;80.55;10.35;;;;;;;;;;5099721;27;20052;-79
2021/12/30 02:39:50;;;;;;;73.20;10.63;;;;;;;;;;5105167;27;20046;-79
2021/12/30 02:42:16;;;;;;;71.38;9.90;;;;;;;;;;5094592;27;20047;-79
2021/12/30 02:44:42;;;;;;;72.53;9.90;;;;;;;;;;5087652;28;20507;-79
2021/12/30 02:47:12;;;;;;;82.88;11.32;;;;;;;;;;5086114;28;20375;-79
2021/12/30 02:49:40;;;;;;;74.57;9.98;;;;;;;;;;5118796;27;20043;-79
2021/12/30 02:52:06;;;;;;;77.72;11.70;;;;;;;;;;5089821;27;20044;-79
2021/12/30 02:54:32;;;;;;;91.45;13.45;;;;;;;;;;5100611;27;20036;-79
2021/12/30 02:56:58;;;;;;;82.53;11.18;;;;;;;;;;5110742;27;20474;-79
2021/12/30 02:59:24;;;;;;;81.57;12.15;;;;;;;;;;5092566;28;20052;-79
2021/12/30 03:01:50;;;;;;;96.22;13.75;;;;;;;;;;5100807;27;20043;-79
2021/12/30 03:04:16;;;;;;;81.32;12.52;;;;;;;;;;5104080;27;20135;-79
2021/12/30 03:06:42;;;;;;;90.85;13.63;;;;;;;;;;5118234;27;20083;-79
2021/12/30 03:09:08;;;;;;;93.25;14.20;;;;;;;;;;5101116;28;20281;-79
2021/12/30 03:11:34;;;;;;;92.20;15.95;;;;;;;;;;5109255;27;20046;-79
2021/12/30 03:14:01;;;;;;;95.07;16.52;;;;;;;;;;5098953;27;20077;-79
2021/12/30 03:16:29;;;;;;;104.43;16.17;;;;;;;;;;5099474;27;20482;-79
2021/12/30 03:18:57;;;;;;;107.30;16.17;;;;;;;;;;5097766;28;20047;-79
2021/12/30 03:21:24;;;;;;;109.65;16.35;;;;;;;;;;5116306;27;20040;-79
2021/12/30 03:23:50;;;;;;;103.22;16.95;;;;;;;;;;5100872;27;20054;-79
2021/12/30 03:26:17;;;;;;;99.15;17.65;;;;;;;;;;5114046;27;20078;-79
2021/12/30 03:28:44;;;;;;;95.82;18.00;;;;;;;;;;5116201;27;20124;-79
2021/12/30 03:31:12;;;;;;;104.32;19.48;;;;;;;;;;5111231;27;20042;-79
2021/12/30 03:33:38;;;;;;;113.22;19.42;;;;;;;;;;5108895;27;20039;-79
2021/12/30 03:36:06;;;;;;;118.70;20.23;;;;;;;;;;5109727;27;20586;-79
2021/12/30 03:38:34;;;;;;;100.22;21.23;;;;;;;;;;5091637;28;20134;-79
2021/12/30 03:41:01;;;;;;;104.82;20.23;;;;;;;;;;5102827;28;20356;-79
2021/12/30 03:43:27;;;;;;;109.15;22.13;;;;;;;;;;5096557;28;20071;-79
2021/12/30 03:45:53;;;;;;;119.00;23.38;;;;;;;;;;5109948;27;20043;-79
2021/12/30 03:48:19;;;;;;;102.65;22.05;;;;;;;;;;5082629;28;20086;-79
2021/12/30 03:50:47;;;;;;;110.57;23.33;;;;;;;;;;5111333;27;20092;-79
2021/12/30 03:53:15;;;;;;;106.65;23.75;;;;;;;;;;5098154;27;20047;-79
2021/12/30 03:55:41;;;;;;;97.05;22.65;;;;;;;;;;5105898;27;20070;-79
2021/12/30 03:58:07;;;;;;;112.05;21.40;;;;;;;;;;5104247;28;20048;-79
2021/12/30 04:00:33;;;;;;;108.85;23.67;;;;;;;;;;5110738;27;20068;-79
2021/12/30 04:03:00;;;;;;;115.30;20.95;;;;;;;;;;5117752;27;20532;-78
2021/12/30 04:05:26;;;;;;;100.40;21.23;;;;;;;;;;5091494;28;20135;-79
2021/12/30 04:07:53;;;;;;;114.90;20.70;;;;;;;;;;5097686;27;20126;-79
2021/12/30 04:10:23;;;;;;;108.15;21.95;;;;;;;;;;5102460;27;20104;-79
2021/12/30 04:12:50;;;;;;;95.97;18.90;;;;;;;;;;5083265;27;20044;-79
2021/12/30 04:15:16;;;;;;;107.13;21.45;;;;;;;;;;5109203;27;20127;-79
2021/12/30 04:17:43;;;;;;;114.18;19.92;;;;;;;;;;5089190;28;20502;-79
2021/12/30 04:20:10;;;;;;;107.55;19.05;;;;;;;;;;5107872;28;20086;-79
2021/12/30 04:22:38;;;;;;;110.30;19.65;;;;;;;;;;5109239;27;20475;-79
2021/12/30 04:25:05;;;;;;;103.45;21.58;;;;;;;;;;5107193;27;20040;-78
2021/12/30 04:27:31;;;;;;;116.72;21.27;;;;;;;;;;5095452;28;20044;-79
2021/12/30 04:29:57;;;;;;;118.65;21.40;;;;;;;;;;5107618;27;20040;-79
2021/12/30 04:32:23;;;;;;;121.95;22.38;;;;;;;;;;5108098;27;20075;-79
2021/12/30 04:34:49;;;;;;;132.23;23.52;;;;;;;;;;5107204;27;20047;-79
2021/12/30 04:37:15;;;;;;;92.38;19.38;;;;;;;;;;5076575;28;20399;-79
2021/12/30 04:39:41;;;;;;;108.60;23.50;;;;;;;;;;5093338;28;20032;-78
2021/12/30 04:42:07;;;;;;;112.60;23.13;;;;;;;;;;5098629;28;20047;-79
2021/12/30 04:44:33;;;;;;;122.63;22.70;;;;;;;;;;5095166;28;20395;-79
2021/12/30 04:46:59;;;;;;;111.10;22.88;;;;;;;;;;5097250;28;20048;-79
2021/12/30 04:49:26;;;;;;;121.68;25.27;;;;;;;;;;5090340;28;20135;-78
2021/12/30 04:51:52;;;;;;;136.88;24.20;;;;;;;;;;5082918;28;20046;-79
2021/12/30 04:54:18;;;;;;;135.25;26.48;;;;;;;;;;5082811;28;20135;-79
2021/12/30 04:56:45;;;;;;;130.00;28.35;;;;;;;;;;5094299;28;20074;-79
2021/12/30 04:59:11;;;;;;;133.80;28.77;;;;;;;;;;5069559;28;20048;-79
2021/12/30 05:01:38;;;;;;;129.35;28.13;;;;;;;;;;5075140;28;20592;-78
2021/12/30 05:04:05;;;;;;;143.05;30.58;;;;;;;;;;5098756;28;20044;-79
2021/12/30 05:06:32;;;;;;;143.70;32.08;;;;;;;;;;5090128;28;20535;-79
2021/12/30 05:08:59;;;;;;;141.65;28.73;;;;;;;;;;5088677;28;20062;-79
2021/12/30 05:11:25;;;;;;;141.68;32.88;;;;;;;;;;5093215;28;20048;-79
2021/12/30 05:13:51;;;;;;;140.27;32.10;;;;;;;;;;5094370;28;20048;-79
2021/12/30 05:16:20;;;;;;;163.80;35.70;;;;;;;;;;5084086;28;20050;-78
2021/12/30 05:18:48;;;;;;;193.75;41.38;;;;;;;;;;5095073;28;20043;-79
2021/12/30 05:21:14;;;;;;;;;;;;;;;;;;5079655;28;20499;-79
2021/12/30 05:23:40;;;;;;;;;;;;;;;;;;5099380;28;19920;-79
2021/12/30 05:26:06;;;;;;;185.10;39.72;;;;;;;;;;5091378;28;20376;-79
2021/12/30 05:28:32;;;;;;;188.10;39.75;;;;;;;;;;5103274;28;20051;-79
2021/12/30 05:30:58;;;;;;;211.85;50.47;;;;;;;;;;5100559;28;20509;-79
2021/12/30 05:33:24;;;;;;;166.63;43.30;;;;;;;;;;5098792;28;20422;-80
2021/12/30 05:35:52;;;;;;;160.90;43.20;;;;;;;;;;5087604;27;20461;-79
2021/12/30 05:38:18;;;;;;;127.97;39.53;;;;;;;;;;5090543;27;20430;-79
2021/12/30 05:40:45;;;;;;;129.87;36.80;;;;;;;;;;5122503;27;20552;-79
2021/12/30 05:43:11;;;;;;;116.53;35.65;;;;;;;;;;5086970;28;20420;-79
2021/12/30 05:45:37;;;;;;;106.72;33.67;;;;;;;;;;5102801;27;20429;-79
2021/12/30 05:48:03;;;;;;;100.25;28.15;;;;;;;;;;5111773;27;20032;-79
2021/12/30 05:50:33;;;;;;;101.28;26.85;;;;;;;;;;5096683;28;20047;-79
2021/12/30 05:52:59;;;;;;;93.30;24.08;;;;;;;;;;5094061;27;20052;-80
2021/12/30 05:55:26;;;;;;;89.40;23.55;;;;;;;;;;5127079;27;20072;-78
2021/12/30 05:57:54;;;;;;;87.80;23.92;;;;;;;;;;5088073;28;20097;-79
2021/12/30 06:00:21;;;;;;;74.35;23.80;;;;;;;;;;5104192;27;20047;-81
2021/12/30 06:02:48;;;;;;;79.70;23.58;;;;;;;;;;5100105;28;20044;-78
2021/12/30 06:05:14;;;;;;;82.68;25.20;;;;;;;;;;5090863;28;20545;-80
2021/12/30 06:07:40;;;;;;;79.28;24.27;;;;;;;;;;5110069;27;20558;-80
2021/12/30 06:10:06;;;;;;;91.60;25.15;;;;;;;;;;5092686;28;20134;-78
2021/12/30 06:12:33;;;;;;;95.75;25.30;;;;;;;;;;5093242;28;20049;-79
2021/12/30 06:14:59;;;;;;;70.72;23.45;;;;;;;;;;5106201;27;20043;-80
2021/12/30 06:17:25;;;;;;;103.35;27.58;;;;;;;;;;5084952;28;20043;-78
2021/12/30 06:19:51;;;;;;;120.78;28.23;;;;;;;;;;5081396;28;20075;-78
2021/12/30 06:22:17;;;;;;;125.22;31.15;;;;;;;;;;5101611;27;20047;-77
2021/12/30 06:24:44;;;;;;;152.27;35.70;;;;;;;;;;5081018;28;20047;-77
2021/12/30 06:27:10;;;;;;;133.75;32.10;;;;;;;;;;5099635;27;20454;-78
2021/12/30 06:29:37;;;;;;;159.30;35.50;;;;;;;;;;5099677;28;20048;-78
2021/12/30 06:32:04;;;;;;;197.10;36.45;;;;;;;;;;5087770;28;20051;-78
2021/12/30 06:34:30;;;;;;;195.50;38.47;;;;;;;;;;5111999;27;20062;-78
2021/12/30 06:36:56;;;;;;;219.60;37.30;;;;;;;;;;5098306;28;20477;-80
2021/12/30 06:39:22;;;;;;;236.75;37.60;;;;;;;;;;5103192;27;20046;-79
2021/12/30 06:41:48;;;;;;;142.13;33.15;;;;;;;;;;5103091;27;20426;-79
2021/12/30 06:44:14;;;;;;;211.23;36.65;;;;;;;;;;5106008;28;20050;-77
2021/12/30 06:46:48;;;;;;;187.82;34.90;;;;;;;;;;5089168;28;20067;-79
2021/12/30 06:49:14;;;;;;;165.68;32.58;;;;;;;;;;5098093;27;20081;-80
2021/12/30 06:51:40;;;;;;;152.80;29.85;;;;;;;;;;5082193;28;20497;-86
2021/12/30 06:54:06;;;;;;;127.15;29.33;;;;;;;;;;5074332;28;20096;-86
2021/12/30 06:56:35;;;;;;;131.60;29.50;;;;;;;;;;5090533;28;20061;-81
2021/12/30 06:59:01;;;;;;;121.28;26.55;;;;;;;;;;5080789;28;20437;-80
2021/12/30 07:01:29;;;;;;;111.55;24.15;;;;;;;;;;5096353;28;20044;-79
2021/12/30 07:03:55;;;;;;;97.03;22.95;;;;;;;;;;5100109;28;20428;-79
2021/12/30 07:06:21;;;;;;;102.60;21.92;;;;;;;;;;5099856;28;20036;-80
2021/12/30 07:08:47;;;;;;;107.22;23.30;;;;;;;;;;5083411;28;20051;-78
2021/12/30 07:11:13;;;;;;;88.15;20.83;;;;;;;;;;5098972;27;20897;-77
2021/12/30 07:13:40;;;;;;;72.93;20.10;;;;;;;;;;5093989;28;20453;-77
2021/12/30 07:16:06;;;;;;;78.85;20.30;;;;;;;;;;5094442;27;20063;-78
2021/12/30 07:18:32;;;;;;;69.47;19.27;;;;;;;;;;5108625;28;20035;-78
2021/12/30 07:20:58;;;;;;;69.80;18.83;;;;;;;;;;5108894;28;20500;-78
2021/12/30 07:23:24;;;;;;;58.80;18.27;;;;;;;;;;5093685;27;20044;-78
2021/12/30 07:25:50;;;;;;;55.08;17.83;;;;;;;;;;5104933;28;20055;-77
2021/12/30 07:28:16;;;;;;;43.88;16.25;;;;;;;;;;5106192;27;20056;-77
2021/12/30 07:30:42;;;;;;;57.70;18.08;;;;;;;;;;5092669;28;20036;-78
2021/12/30 07:33:08;;;;;;;58.22;17.38;;;;;;;;;;5100119;28;20104;-77
2021/12/30 07:35:36;;;;;;;49.70;16.15;;;;;;;;;;5126834;27;20058;-78
2021/12/30 07:38:02;;;;;;;44.28;15.73;;;;;;;;;;5121332;27;20083;-78
2021/12/30 07:40:28;;;;;;;39.20;14.93;;;;;;;;;;5103493;27;20077;-78
2021/12/30 07:42:54;;;;;;;37.92;15.68;;;;;;;;;;5127256;27;20179;-80
2021/12/30 07:45:20;;;;;;;40.20;15.55;;;;;;;;;;5122042;27;20126;-79
2021/12/30 07:47:47;;;;;;;43.40;15.82;;;;;;;;;;5134202;27;20089;-79
2021/12/30 07:50:14;;;;;;;43.53;15.85;;;;;;;;;;5109848;27;20180;-78
2021/12/30 07:52:40;;;;;;;47.00;16.90;;;;;;;;;;5115687;27;20067;-78
2021/12/30 07:55:07;;;;;;;32.88;14.95;;;;;;;;;;5098905;27;20443;-79
2021/12/30 07:57:33;;;;;;;36.20;16.10;;;;;;;;;;5134130;27;20180;-79
2021/12/30 07:59:59;;;;;;;;;;;;;;;;;;5122691;27;20042;-78
2021/12/30 08:02:25;;;;;;;;;;;;;;;;;;5122771;27;19919;-79
2021/12/30 08:04:51;;;;;;;;;;;;;;;;;;5138609;27;19927;-78
2021/12/30 08:07:21;;;;;;;;;;;;;;;;;;5137496;27;19919;-78
2021/12/30 08:09:47;;;;;;;;;;;;;;;;;;5129323;27;20002;-78
2021/12/30 08:12:13;;;;;;;;;;;;;;;;;;5122205;27;20030;-78
2021/12/30 08:14:38;;;;;;;;;;;;;;;;;;5142405;27;19924;-79
2021/12/30 08:17:04;;;;;;;;;;;;;;;;;;5120226;27;19926;-78
2021/12/30 08:19:30;;;;;;;;;;;;;;;;;;5156707;27;19919;-79
2021/12/30 08:21:56;;;;;;;;;;;;;;;;;;5123605;27;20640;-78
2021/12/30 08:24:22;;;;;;;;;;;;;;;;;;5127006;27;19919;-78
2021/12/30 08:26:48;;;;;;;20.92;11.88;;;;;;;;;;5126238;27;19961;-78
2021/12/30 08:29:15;;;;;;;25.08;12.68;;;;;;;;;;5104264;27;20514;-79
2021/12/30 08:31:41;;;;;;;35.15;15.63;;;;;;;;;;5101379;27;20034;-76
2021/12/30 08:34:08;;;;;;;34.88;16.73;;;;;;;;;;5122583;27;20046;-79
2021/12/30 08:36:34;;;;;;;34.25;17.20;;;;;;;;;;5104251;27;20070;-79
2021/12/30 08:39:00;;;;;;;34.35;18.38;;;;;;;;;;5134665;27;20042;-78
2021/12/30 08:41:27;;;;;;;33.63;18.83;;;;;;;;;;5128038;27;20066;-79
2021/12/30 08:43:53;;;;;;;31.27;16.60;;;;;;;;;;5118429;27;20050;-79
2021/12/30 08:46:19;;;;;;;32.38;15.38;;;;;;;;;;5154285;27;20107;-77
2021/12/30 08:48:45;;;;;;;32.40;15.95;;;;;;;;;;5121755;27;20114;-78
2021/12/30 08:51:11;;;;;;;33.72;16.25;;;;;;;;;;5099343;27;20133;-79
2021/12/30 08:53:41;;;;;;;33.95;14.93;;;;;;;;;;5121947;27;20050;-82
2021/12/30 08:56:14;;;;;;;36.42;15.88;;;;;;;;;;5127911;27;20058;-80
2021/12/30 08:58:40;;;;;;;26.33;13.38;;;;;;;;;;5103673;27;20137;-79
2021/12/30 09:01:06;;;;;;;31.38;13.60;;;;;;;;;;5153476;27;20091;-80
2021/12/30 09:03:33;;;;;;;39.70;15.25;;;;;;;;;;5133926;27;20134;-79
2021/12/30 09:05:59;;;;;;;35.13;15.27;;;;;;;;;;5127004;27;20443;-79
2021/12/30 09:08:25;;;;;;;31.13;14.93;;;;;;;;;;5106664;27;20185;-82
2021/12/30 09:10:51;;;;;;;33.05;15.85;;;;;;;;;;5109019;27;20051;-80
2021/12/30 09:13:21;;;;;;;33.75;14.93;;;;;;;;;;5125967;27;20117;-83
2021/12/30 09:15:47;;;;;;;47.58;15.98;;;;;;;;;;5129518;27;20034;-83
2021/12/30 09:18:14;;;;;;;36.13;14.30;;;;;;;;;;5116620;27;20047;-83
2021/12/30 09:20:41;;;;;;;31.98;12.98;;;;;;;;;;5135818;27;20085;-80
2021/12/30 09:23:09;;;;;;;30.58;13.05;;;;;;;;;;5162272;27;20046;-80
2021/12/30 09:25:36;;;;;;;37.47;13.45;;;;;;;;;;5109863;27;20130;-77
2021/12/30 09:28:03;;;;;;;32.03;12.07;;;;;;;;;;5130024;27;20483;-78
2021/12/30 09:30:29;;;;;;;33.58;11.43;;;;;;;;;;5124133;27;20062;-79
2021/12/30 09:32:56;;;;;;;24.63;10.40;;;;;;;;;;5125086;27;20043;-79
2021/12/30 09:35:23;;;;;;;25.95;10.75;;;;;;;;;;5115486;27;20047;-77
2021/12/30 09:37:49;;;;;;;23.95;10.25;;;;;;;;;;5107342;27;20046;-78
2021/12/30 09:40:16;;;;;;;33.20;12.10;;;;;;;;;;5121524;27;20043;-79
2021/12/30 09:42:45;;;;;;;37.13;13.65;;;;;;;;;;5102775;27;20060;-78
2021/12/30 09:45:11;;;;;;;30.25;12.85;;;;;;;;;;5136016;27;20043;-78
2021/12/30 09:47:58;;;;;;;36.72;14.07;;;;;;;;;;5115590;27;20051;-79
2021/12/30 09:50:26;;;;;;;43.35;14.57;;;;;;;;;;5156236;27;20460;-82
2021/12/30 09:52:52;;;;;;;39.85;12.27;;;;;;;;;;5117208;27;20354;-81
2021/12/30 09:55:19;;;;;;;38.40;13.50;;;;;;;;;;5131862;27;20050;-81
2021/12/30 09:57:45;;;;;;;37.75;12.43;;;;;;;;;;5124863;27;20390;-80
2021/12/30 10:00:13;;;;;;;39.55;11.02;;;;;;;;;;5114503;27;20125;-80
2021/12/30 10:02:43;;;;;;;33.22;12.07;;;;;;;;;;5144931;27;20051;-81
2021/12/30 10:05:10;;;;;;;28.38;9.95;;;;;;;;;;5153190;27;20559;-83
2021/12/30 10:07:39;;;;;;;33.17;10.93;;;;;;;;;;5139374;27;20137;-93
2021/12/30 10:10:24;;;;;;;41.97;11.32;;;;;;;;;;5125319;27;20383;-82
2021/12/30 10:12:51;;;;;;;39.00;10.57;;;;;;;;;;5108565;27;20046;-78
2021/12/30 10:15:17;;;;;;;35.03;10.77;;;;;;;;;;5091058;27;20053;-85
2021/12/30 10:17:43;;;;;;;38.90;10.18;;;;;;;;;;5136360;27;20129;-81
2021/12/30 10:20:25;;;;;;;41.67;11.27;;;;;;;;;;5122772;27;20042;-81
2021/12/30 10:22:52;;;;;;;36.08;10.60;;;;;;;;;;5106362;27;20362;-79
2021/12/30 10:25:28;;;;;;;38.58;12.75;;;;;;;;;;5118079;27;20054;-80
2021/12/30 10:27:55;;;;;;;38.17;11.20;;;;;;;;;;5127021;27;20393;-81
2021/12/30 10:30:34;;;;;;;38.80;10.95;;;;;;;;;;5117902;27;20081;-81
2021/12/30 10:33:09;;;;;;;45.72;13.38;;;;;;;;;;5120096;27;20066;-81
2021/12/30 10:35:35;;;;;;;47.20;11.50;;;;;;;;;;5148416;27;20050;-81
2021/12/30 10:38:08;;;;;;;40.42;10.63;;;;;;;;;;5128851;27;20435;-80
2021/12/30 10:40:34;;;;;;;37.58;10.40;;;;;;;;;;5119924;27;20047;-81
2021/12/30 10:43:24;;;;;;;43.35;11.10;;;;;;;;;;5156542;27;20035;-80
2021/12/30 10:46:04;;;;;;;44.08;11.27;;;;;;;;;;5121204;27;20081;-80
2021/12/30 10:48:31;;;;;;;44.70;10.20;;;;;;;;;;5112374;27;20104;-81
2021/12/30 10:51:14;;;;;;;46.58;9.75;;;;;;;;;;5145286;27;20045;-80
2021/12/30 10:53:40;;;;;;;43.25;10.32;;;;;;;;;;5134465;27;20043;-81
2021/12/30 10:56:19;;;;;;;51.00;10.20;;;;;;;;;;5130512;27;20393;-81
2021/12/30 10:58:45;;;;;;;39.03;8.52;;;;;;;;;;5117054;27;20039;-80
2021/12/30 11:01:16;;;;;;;41.85;8.75;;;;;;;;;;5121323;27;20616;-81
2021/12/30 11:03:42;;;;;;;47.40;11.18;;;;;;;;;;5117216;27;20073;-80
2021/12/30 11:06:12;;;;;;;47.25;9.65;;;;;;;;;;5101195;27;20091;-81
2021/12/30 11:08:38;;;;;;;56.33;10.15;;;;;;;;;;5114427;27;20091;-81
2021/12/30 11:11:23;;;;;;;48.78;10.15;;;;;;;;;;5120363;27;20046;-79
2021/12/30 11:14:08;;;;;;;50.38;10.48;;;;;;;;;;5152742;27;20297;-79
2021/12/30 11:16:52;;;;;;;51.45;10.57;;;;;;;;;;5109251;27;20451;-80
2021/12/30 11:19:18;;;;;;;58.42;12.93;;;;;;;;;;5120168;27;20051;-79
2021/12/30 11:21:47;;;;;;;60.58;12.60;;;;;;;;;;5117195;27;20496;-79
2021/12/30 11:24:13;;;;;;;59.17;12.27;;;;;;;;;;5136121;27;20047;-79
2021/12/30 11:26:40;;;;;;;72.18;13.57;;;;;;;;;;5152067;27;20455;-79
2021/12/30 11:29:06;;;;;;;60.47;14.00;;;;;;;;;;5099164;27;20121;-80
2021/12/30 11:31:33;;;;;;;73.70;12.73;;;;;;;;;;5165366;27;20118;-80
2021/12/30 11:33:59;;;;;;;67.97;13.20;;;;;;;;;;5116860;27;20487;-81
2021/12/30 11:36:28;;;;;;;58.55;12.50;;;;;;;;;;5091362;28;20051;-80
2021/12/30 11:38:54;;;;;;;;;;;;;;;;;;5107432;28;20123;-80
2021/12/30 11:41:20;;;;;;;;;;;;;;;;;;5098779;28;20517;-80
2021/12/30 11:43:46;;;;;;;;;;;;;;;;;;5093973;28;20371;-80
2021/12/30 11:46:12;;;;;;;;;;;;;;;;;;5102102;28;20375;-79
2021/12/30 11:48:38;;;;;;;;;;;;;;;;;;5122430;27;19924;-80
2021/12/30 11:51:04;;;;;;;;;;;;;;;;;;5101200;28;19962;-80
2021/12/30 11:53:30;;;;;;;;;;;;;;;;;;5078573;28;19963;-80
2021/12/30 11:55:57;;;;;;;;;;;;;;;;;;5130475;27;20325;-80
2021/12/30 11:58:34;;;;;;;66.82;11.27;;;;;;;;;;5075366;28;20346;-80
2021/12/30 12:01:12;;;;;;;65.45;11.40;;;;;;;;;;5092562;28;20131;-80
2021/12/30 12:03:38;;;;;;;70.75;11.30;;;;;;;;;;5108309;28;20050;-80
2021/12/30 12:06:05;;;;;;;66.32;12.05;;;;;;;;;;5091747;28;20062;-80
2021/12/30 12:08:44;;;;;;;59.20;10.73;;;;;;;;;;5098250;28;20035;-80
2021/12/30 12:11:12;;;;;;;59.70;10.95;;;;;;;;;;5077748;28;20032;-80
2021/12/30 12:13:40;;;;;;;56.78;10.90;;;;;;;;;;5108328;28;20120;-80
2021/12/30 12:16:06;;;;;;;64.97;11.70;;;;;;;;;;5094799;28;20375;-80
2021/12/30 12:18:32;;;;;;;62.58;11.63;;;;;;;;;;5099793;28;20505;-80
2021/12/30 12:21:00;;;;;;;60.33;11.20;;;;;;;;;;5088715;28;20440;-80
2021/12/30 12:23:26;;;;;;;;;;;;;;;;;;5083386;28;20046;-80
2021/12/30 12:26:11;;;;;;;49.53;9.25;;;;;;;;;;5106405;28;19924;-79
2021/12/30 12:28:37;;;;;;;;;;;;;;;;;;5127028;27;20086;-80
2021/12/30 12:31:03;;;;;;;;;;;;;;;;;;5129947;27;20287;-80
2021/12/30 12:33:29;;;;;;;;;;;;;;;;;;5074806;28;19928;-80
2021/12/30 12:35:55;;;;;;;;;;;;;;;;;;5084759;28;19920;-79
2021/12/30 12:38:21;;;;;;;;;;;;;;;;;;5089553;28;19926;-79
2021/12/30 12:40:47;;;;;;;;;;;;;;;;;;5107699;28;19924;-79
2021/12/30 12:43:13;;;;;;;;;;;;;;;;;;5092895;28;19920;-79
2021/12/30 12:45:41;;;;;;;;;;;;;;;;;;5074417;28;19927;-79
2021/12/30 12:48:07;;;;;;;;;;;;;;;;;;5097062;28;19924;-79
2021/12/30 12:50:33;;;;;;;;;;;;;;;;;;5077179;28;19920;-80
2021/12/30 12:52:59;;;;;;;;;;;;;;;;;;5093616;28;19923;-79
2021/12/30 12:55:25;;;;;;;;;;;;;;;;;;5096968;28;19938;-79
2021/12/30 12:57:51;;;;;;;;;;;;;;;;;;5086154;28;20003;-79
2021/12/30 13:00:17;;;;;;;;;;;;;;;;;;5101835;28;19920;-79
2021/12/30 13:02:43;;;;;;;;;;;;;;;;;;5075876;28;19920;-79
2021/12/30 13:05:11;;;;;;;;;;;;;;;;;;5074819;28;20007;-79
2021/12/30 13:07:37;;;;;;;;;;;;;;;;;;5089600;28;19943;-79
2021/12/30 13:10:03;;;;;;;;;;;;;;;;;;5107731;28;20362;-79
2021/12/30 13:12:29;;;;;;;;;;;;;;;;;;5087715;28;20003;-80
2021/12/30 13:14:55;;;;;;;;;;;;;;;;;;5125296;27;19920;-79
2021/12/30 13:17:21;;;;;;;;;;;;;;;;;;5106727;28;19951;-80
2021/12/30 13:19:47;;;;;;;;;;;;;;;;;;5089453;28;20031;-80
2021/12/30 13:22:13;;;;;;;;;;;;;;;;;;5086482;28;19950;-79
2021/12/30 13:24:39;;;;;;;;;;;;;;;;;;5093635;28;20321;-79
2021/12/30 13:27:05;;;;;;;;;;;;;;;;;;5094627;28;19920;-79
2021/12/30 13:29:31;;;;;;;;;;;;;;;;;;5091587;28;19920;-79
2021/12/30 13:31:57;;;;;;;;;;;;;;;;;;5127634;27;19920;-80
2021/12/30 13:34:23;;;;;;;;;;;;;;;;;;5128193;27;19919;-79
2021/12/30 13:36:49;;;;;;;;;;;;;;;;;;5114934;28;19926;-79
2021/12/30 13:39:16;;;;;;;;;;;;;;;;;;5142032;27;20388;-79
2021/12/30 13:41:42;;;;;;;;;;;;;;;;;;5146921;27;20083;-79
2021/12/30 13:44:08;;;;;;;;;;;;;;;;;;5137463;27;19919;-79
2021/12/30 13:46:34;;;;;;;;;;;;;;;;;;5131692;27;19942;-79
2021/12/30 13:49:00;;;;;;;;;;;;;;;;;;5161827;27;19923;-79
2021/12/30 13:51:28;;;;;;;;;;;;;;;;;;5150315;27;20354;-80
2021/12/30 13:53:54;;;;;;;;;;;;;;;;;;5149170;27;20299;-79
2021/12/30 13:56:20;;;;;;;;;;;;;;;;;;5132814;27;19930;-79
2021/12/30 13:58:46;;;;;;;;;;;;;;;;;;5135730;27;19920;-79
2021/12/30 14:01:12;;;;;;;;;;;;;;;;;;5153694;27;20377;-79
2021/12/30 14:03:39;;;;;;;;;;;;;;;;;;5122052;27;20392;-78
2021/12/30 14:06:05;;;;;;;;;;;;;;;;;;5135863;27;19964;-78
2021/12/30 14:08:31;;;;;;;;;;;;;;;;;;5164211;27;19919;-79
2021/12/30 14:10:57;;;;;;;;;;;;;;;;;;5129989;27;20307;-78
2021/12/30 14:13:22;;;;;;;;;;;;;;;;;;5140540;27;19919;-79
2021/12/30 14:15:48;;;;;;;;;;;;;;;;;;5131199;27;20385;-79
2021/12/30 14:18:14;;;;;;;;;;;;;;;;;;5118595;27;20392;-79
2021/12/30 14:20:40;;;;;;;;;;;;;;;;;;5144500;27;20386;-79
2021/12/30 14:23:06;;;;;;;;;;;;;;;;;;5140763;27;19923;-79
2021/12/30 14:25:32;;;;;;;;;;;;;;;;;;5143310;27;20118;-79
2021/12/30 14:27:58;;;;;;;;;;;;;;;;;;5137467;27;19918;-79
2021/12/30 14:30:24;;;;;;;;;;;;;;;;;;5132599;27;19926;-79
2021/12/30 14:32:50;;;;;;;;;;;;;;;;;;5117878;27;20316;-79
2021/12/30 14:35:16;;;;;;;;;;;;;;;;;;5119578;27;19927;-79
2021/12/30 14:37:44;;;;;;;;;;;;;;;;;;5125347;27;19962;-79
2021/12/30 14:40:11;;;;;;;;;;;;;;;;;;5144987;27;19926;-79
2021/12/30 14:42:39;;;;;;;;;;;;;;;;;;5124333;27;19919;-79
2021/12/30 14:45:05;;;;;;;;;;;;;;;;;;5124963;27;20269;-79
2021/12/30 14:47:30;;;;;;;;;;;;;;;;;;5129588;27;19926;-79